sensor_id;sensor_type;location;lat;lon;timestamp;pressure;altitude;pressure_sealevel;temperature;humidity
39773;BME280;25451;51.960;6.250;2023-02-01T00:01:08;101774.09;;;5.08;77.09
39773;BME280;25451;51.960;6.250;2023-02-01T00:03:33;101765.22;;;5.06;76.97
39773;BME280;25451;51.960;6.250;2023-02-01T00:05:59;101762.09;;;5.09;76.98
39773;BME280;25451;51.960;6.250;2023-02-01T00:08:25;101753.06;;;5.09;77.14
39773;BME280;25451;51.960;6.250;2023-02-01T00:11:02;101742.47;;;5.05;77.12
39773;BME280;25451;51.960;6.250;2023-02-01T00:13:31;101745.59;;;5.02;77.08
39773;BME280;25451;51.960;6.250;2023-02-01T00:16:05;101741.81;;;5.03;76.63
39773;BME280;25451;51.960;6.250;2023-02-01T00:18:31;101740.78;;;5.04;76.86
39773;BME280;25451;51.960;6.250;2023-02-01T00:20:56;101739.75;;;5.05;76.98
39773;BME280;25451;51.960;6.250;2023-02-01T00:23:21;101734.47;;;5.04;77.28
39773;BME280;25451;51.960;6.250;2023-02-01T00:25:47;101732.84;;;5.10;77.13
39773;BME280;25451;51.960;6.250;2023-02-01T00:28:12;101724.19;;;5.06;76.86
39773;BME280;25451;51.960;6.250;2023-02-01T00:30:38;101735.22;;;5.13;76.63
39773;BME280;25451;51.960;6.250;2023-02-01T00:33:03;101722.00;;;5.01;77.11
39773;BME280;25451;51.960;6.250;2023-02-01T00:35:29;101729.84;;;5.04;77.11
39773;BME280;25451;51.960;6.250;2023-02-01T00:37:54;101728.44;;;5.09;76.91
39773;BME280;25451;51.960;6.250;2023-02-01T00:40:19;101739.28;;;5.17;76.71
39773;BME280;25451;51.960;6.250;2023-02-01T00:42:44;101732.09;;;5.16;76.86
39773;BME280;25451;51.960;6.250;2023-02-01T00:45:10;101726.91;;;5.06;76.74
39773;BME280;25451;51.960;6.250;2023-02-01T00:47:35;101737.56;;;5.16;77.01
39773;BME280;25451;51.960;6.250;2023-02-01T00:50:00;101717.50;;;5.09;76.95
39773;BME280;25451;51.960;6.250;2023-02-01T00:52:26;101718.97;;;5.11;76.87
39773;BME280;25451;51.960;6.250;2023-02-01T00:54:51;101713.16;;;5.14;76.89
39773;BME280;25451;51.960;6.250;2023-02-01T00:57:16;101707.66;;;5.14;76.89
39773;BME280;25451;51.960;6.250;2023-02-01T00:59:42;101699.00;;;5.11;76.90
39773;BME280;25451;51.960;6.250;2023-02-01T01:02:07;101695.75;;;5.07;76.64
39773;BME280;25451;51.960;6.250;2023-02-01T01:04:32;101702.41;;;5.13;76.89
39773;BME280;25451;51.960;6.250;2023-02-01T01:06:57;101713.59;;;5.18;77.22
39773;BME280;25451;51.960;6.250;2023-02-01T01:09:23;101718.53;;;5.22;77.05
39773;BME280;25451;51.960;6.250;2023-02-01T01:11:48;101714.09;;;5.21;76.57
39773;BME280;25451;51.960;6.250;2023-02-01T01:14:15;101717.88;;;5.20;76.65
39773;BME280;25451;51.960;6.250;2023-02-01T01:16:41;101722.97;;;5.23;76.72
39773;BME280;25451;51.960;6.250;2023-02-01T01:19:06;101708.53;;;5.15;77.06
39773;BME280;25451;51.960;6.250;2023-02-01T01:21:31;101740.72;;;5.27;77.01
39773;BME280;25451;51.960;6.250;2023-02-01T01:23:58;101725.13;;;5.28;77.09
39773;BME280;25451;51.960;6.250;2023-02-01T01:26:25;101720.50;;;5.28;76.90
39773;BME280;25451;51.960;6.250;2023-02-01T01:28:51;101715.88;;;5.29;76.86
39773;BME280;25451;51.960;6.250;2023-02-01T01:31:18;101699.47;;;5.29;76.83
39773;BME280;25451;51.960;6.250;2023-02-01T01:33:47;101712.50;;;5.27;76.41
39773;BME280;25451;51.960;6.250;2023-02-01T01:36:13;101704.09;;;5.28;76.88
39773;BME280;25451;51.960;6.250;2023-02-01T01:38:42;101712.97;;;5.30;76.74
39773;BME280;25451;51.960;6.250;2023-02-01T01:41:08;101709.38;;;5.30;76.43
39773;BME280;25451;51.960;6.250;2023-02-01T01:46:24;101716.75;;;5.29;76.18
39773;BME280;25451;51.960;6.250;2023-02-01T01:48:55;101696.44;;;5.24;76.85
39773;BME280;25451;51.960;6.250;2023-02-01T01:51:24;101692.56;;;5.18;76.80
39773;BME280;25451;51.960;6.250;2023-02-01T01:53:56;101697.75;;;5.28;76.67
39773;BME280;25451;51.960;6.250;2023-02-01T01:56:24;101699.47;;;5.29;76.86
39773;BME280;25451;51.960;6.250;2023-02-01T01:58:51;101680.41;;;5.21;76.71
39773;BME280;25451;51.960;6.250;2023-02-01T02:01:17;101699.47;;;5.29;76.78
39773;BME280;25451;51.960;6.250;2023-02-01T02:03:44;101696.06;;;5.27;76.59
39773;BME280;25451;51.960;6.250;2023-02-01T02:08:57;101683.41;;;5.26;76.56
39773;BME280;25451;51.960;6.250;2023-02-01T02:11:23;101674.63;;;5.16;76.85
39773;BME280;25451;51.960;6.250;2023-02-01T02:13:51;101671.34;;;5.20;76.67
39773;BME280;25451;51.960;6.250;2023-02-01T02:16:38;101680.00;;;5.24;76.66
39773;BME280;25451;51.960;6.250;2023-02-01T02:30:55;101658.50;;;5.21;76.79
39773;BME280;25451;51.960;6.250;2023-02-01T02:36:27;101653.03;;;5.21;76.70
39773;BME280;25451;51.960;6.250;2023-02-01T02:39:30;101665.66;;;5.22;76.63
39773;BME280;25451;51.960;6.250;2023-02-01T02:42:47;101656.44;;;5.23;76.95
39773;BME280;25451;51.960;6.250;2023-02-01T02:45:18;101648.78;;;5.18;76.62
39773;BME280;25451;51.960;6.250;2023-02-01T02:48:17;101647.16;;;5.24;76.79
39773;BME280;25451;51.960;6.250;2023-02-01T02:50:56;101632.81;;;5.22;76.81
39773;BME280;25451;51.960;6.250;2023-02-01T02:53:51;101645.09;;;5.26;76.63
39773;BME280;25451;51.960;6.250;2023-02-01T02:56:37;101636.06;;;5.25;76.81
39773;BME280;25451;51.960;6.250;2023-02-01T02:59:24;101626.13;;;5.24;76.71
39773;BME280;25451;51.960;6.250;2023-02-01T03:02:10;101620.56;;;5.18;76.50
39773;BME280;25451;51.960;6.250;2023-02-01T03:04:55;101643.00;;;5.28;76.93
39773;BME280;25451;51.960;6.250;2023-02-01T03:15:57;101617.72;;;5.26;76.85
39773;BME280;25451;51.960;6.250;2023-02-01T03:18:42;101607.44;;;5.28;76.68
39773;BME280;25451;51.960;6.250;2023-02-01T03:21:13;101576.41;;;5.21;76.66
39773;BME280;25451;51.960;6.250;2023-02-01T03:23:42;101594.59;;;5.28;76.79
39773;BME280;25451;51.960;6.250;2023-02-01T03:26:11;101573.47;;;5.22;76.34
39773;BME280;25451;51.960;6.250;2023-02-01T03:28:43;101592.53;;;5.30;76.76
39773;BME280;25451;51.960;6.250;2023-02-01T03:31:09;101599.63;;;5.25;76.80
39773;BME280;25451;51.960;6.250;2023-02-01T03:33:35;101588.03;;;5.23;76.61
39773;BME280;25451;51.960;6.250;2023-02-01T03:36:05;101611.88;;;5.29;76.69
39773;BME280;25451;51.960;6.250;2023-02-01T03:38:48;101620.09;;;5.29;77.10
39773;BME280;25451;51.960;6.250;2023-02-01T03:44:16;101622.38;;;5.25;77.04
39773;BME280;25451;51.960;6.250;2023-02-01T03:49:58;101630.00;;;5.30;76.70
39773;BME280;25451;51.960;6.250;2023-02-01T03:52:30;101621.13;;;5.28;76.82
39773;BME280;25451;51.960;6.250;2023-02-01T03:54:58;101603.00;;;5.27;77.01
39773;BME280;25451;51.960;6.250;2023-02-01T03:57:29;101607.44;;;5.28;76.77
39773;BME280;25451;51.960;6.250;2023-02-01T04:00:09;101593.94;;;5.26;76.97
39773;BME280;25451;51.960;6.250;2023-02-01T04:02:35;101605.56;;;5.28;76.93
39773;BME280;25451;51.960;6.250;2023-02-01T04:05:00;101606.88;;;5.32;76.79
39773;BME280;25451;51.960;6.250;2023-02-01T04:07:25;101611.31;;;5.33;77.02
39773;BME280;25451;51.960;6.250;2023-02-01T04:09:51;101608.75;;;5.32;76.60
39773;BME280;25451;51.960;6.250;2023-02-01T04:12:16;101605.00;;;5.33;76.90
39773;BME280;25451;51.960;6.250;2023-02-01T04:14:41;101591.88;;;5.28;76.74
39773;BME280;25451;51.960;6.250;2023-02-01T04:17:06;101605.34;;;5.30;76.81
39773;BME280;25451;51.960;6.250;2023-02-01T04:19:32;101597.53;;;5.27;77.09
39773;BME280;25451;51.960;6.250;2023-02-01T04:21:57;101607.94;;;5.31;76.71
39773;BME280;25451;51.960;6.250;2023-02-01T04:24:22;101609.81;;;5.31;77.02
39773;BME280;25451;51.960;6.250;2023-02-01T04:26:48;101590.09;;;5.21;76.82
39773;BME280;25451;51.960;6.250;2023-02-01T04:29:13;101597.91;;;5.24;76.59
39773;BME280;25451;51.960;6.250;2023-02-01T04:31:38;101597.53;;;5.27;76.96
39773;BME280;25451;51.960;6.250;2023-02-01T04:34:04;101598.75;;;5.24;76.91
39773;BME280;25451;51.960;6.250;2023-02-01T04:36:29;101591.88;;;5.14;77.08
39773;BME280;25451;51.960;6.250;2023-02-01T04:38:55;101596.22;;;5.23;77.18
39773;BME280;25451;51.960;6.250;2023-02-01T04:41:20;101606.78;;;5.26;77.25
39773;BME280;25451;51.960;6.250;2023-02-01T04:43:49;101585.56;;;5.13;76.99
39773;BME280;25451;51.960;6.250;2023-02-01T04:46:15;101604.03;;;5.26;76.92
39773;BME280;25451;51.960;6.250;2023-02-01T04:48:41;101605.09;;;5.25;77.07
39773;BME280;25451;51.960;6.250;2023-02-01T04:51:06;101597.25;;;5.22;76.90
39773;BME280;25451;51.960;6.250;2023-02-01T04:53:31;101593.19;;;5.18;77.17
39773;BME280;25451;51.960;6.250;2023-02-01T04:55:57;101612.25;;;5.26;77.17
39773;BME280;25451;51.960;6.250;2023-02-01T04:58:22;101607.19;;;5.23;77.23
39773;BME280;25451;51.960;6.250;2023-02-01T05:00:48;101609.50;;;5.26;77.29
39773;BME280;25451;51.960;6.250;2023-02-01T05:03:14;101606.78;;;5.26;76.95
39773;BME280;25451;51.960;6.250;2023-02-01T05:05:41;101603.47;;;5.30;77.29
39773;BME280;25451;51.960;6.250;2023-02-01T05:08:06;101590.00;;;5.29;76.94
39773;BME280;25451;51.960;6.250;2023-02-01T05:10:31;101608.59;;;5.33;76.71
39773;BME280;25451;51.960;6.250;2023-02-01T05:12:57;101607.72;;;5.33;76.95
39773;BME280;25451;51.960;6.250;2023-02-01T05:15:41;101604.69;;;5.28;77.06
39773;BME280;25451;51.960;6.250;2023-02-01T05:18:06;101619.13;;;5.36;76.63
39773;BME280;25451;51.960;6.250;2023-02-01T05:20:31;101620.91;;;5.44;77.10
39773;BME280;25451;51.960;6.250;2023-02-01T05:22:57;101602.38;;;5.46;76.50
39773;BME280;25451;51.960;6.250;2023-02-01T05:25:22;101584.28;;;5.45;76.70
39773;BME280;25451;51.960;6.250;2023-02-01T05:27:47;101588.53;;;5.47;76.78
39773;BME280;25451;51.960;6.250;2023-02-01T05:30:13;101600.81;;;5.51;76.90
39773;BME280;25451;51.960;6.250;2023-02-01T05:32:38;101592.75;;;5.50;76.65
39773;BME280;25451;51.960;6.250;2023-02-01T05:35:04;101587.28;;;5.50;76.58
39773;BME280;25451;51.960;6.250;2023-02-01T05:37:29;101589.91;;;5.58;76.93
39773;BME280;25451;51.960;6.250;2023-02-01T05:39:55;101606.59;;;5.63;76.93
39773;BME280;25451;51.960;6.250;2023-02-01T05:42:20;101607.47;;;5.63;76.96
39773;BME280;25451;51.960;6.250;2023-02-01T05:44:45;101573.88;;;5.55;76.82
39773;BME280;25451;51.960;6.250;2023-02-01T05:47:11;101592.53;;;5.66;77.15
39773;BME280;25451;51.960;6.250;2023-02-01T05:49:37;101600.63;;;5.74;76.63
39773;BME280;25451;51.960;6.250;2023-02-01T05:52:02;101586.00;;;5.67;76.90
39773;BME280;25451;51.960;6.250;2023-02-01T05:54:28;101607.22;;;5.79;76.69
39773;BME280;25451;51.960;6.250;2023-02-01T05:56:53;101601.94;;;5.78;76.74
39773;BME280;25451;51.960;6.250;2023-02-01T05:59:18;101603.41;;;5.80;76.69
39773;BME280;25451;51.960;6.250;2023-02-01T06:01:44;101619.31;;;5.85;76.97
39773;BME280;25451;51.960;6.250;2023-02-01T06:04:09;101622.06;;;5.85;77.11
39773;BME280;25451;51.960;6.250;2023-02-01T06:06:34;101620.63;;;5.89;76.39
39773;BME280;25451;51.960;6.250;2023-02-01T06:09:02;101624.00;;;5.91;77.13
39773;BME280;25451;51.960;6.250;2023-02-01T06:11:28;101603.72;;;5.85;76.71
39773;BME280;25451;51.960;6.250;2023-02-01T06:13:53;101618.97;;;5.95;76.91
39773;BME280;25451;51.960;6.250;2023-02-01T06:16:20;101615.78;;;5.91;76.68
39773;BME280;25451;51.960;6.250;2023-02-01T06:18:46;101609.28;;;5.92;76.56
39773;BME280;25451;51.960;6.250;2023-02-01T06:21:11;101581.41;;;5.88;76.67
39773;BME280;25451;51.960;6.250;2023-02-01T06:23:38;101590.34;;;5.97;76.40
39773;BME280;25451;51.960;6.250;2023-02-01T06:26:05;101602.44;;;6.03;76.73
39773;BME280;25451;51.960;6.250;2023-02-01T06:28:33;101610.25;;;6.06;76.77
39773;BME280;25451;51.960;6.250;2023-02-01T06:31:03;101608.56;;;6.05;76.66
39773;BME280;25451;51.960;6.250;2023-02-01T06:33:28;101610.25;;;6.06;76.92
39773;BME280;25451;51.960;6.250;2023-02-01T06:35:57;101604.78;;;6.06;76.52
39773;BME280;25451;51.960;6.250;2023-02-01T06:38:24;101604.84;;;6.12;76.61
39773;BME280;25451;51.960;6.250;2023-02-01T06:40:56;101595.97;;;6.10;76.34
39773;BME280;25451;51.960;6.250;2023-02-01T06:43:23;101601.81;;;6.07;76.97
39773;BME280;25451;51.960;6.250;2023-02-01T06:45:49;101605.22;;;6.09;77.10
39773;BME280;25451;51.960;6.250;2023-02-01T06:48:15;101633.16;;;6.19;76.49
39773;BME280;25451;51.960;6.250;2023-02-01T06:50:40;101617.47;;;6.13;76.53
39773;BME280;25451;51.960;6.250;2023-02-01T06:53:05;101629.38;;;6.20;76.41
39773;BME280;25451;51.960;6.250;2023-02-01T06:55:31;101622.84;;;6.21;76.20
39773;BME280;25451;51.960;6.250;2023-02-01T06:57:56;101612.28;;;6.18;76.20
39773;BME280;25451;51.960;6.250;2023-02-01T07:00:22;101628.97;;;6.23;76.93
39773;BME280;25451;51.960;6.250;2023-02-01T07:02:48;101613.78;;;6.21;76.74
39773;BME280;25451;51.960;6.250;2023-02-01T07:05:13;101613.38;;;6.24;76.31
39773;BME280;25451;51.960;6.250;2023-02-01T07:07:39;101626.88;;;6.25;76.32
39773;BME280;25451;51.960;6.250;2023-02-01T07:10:04;101633.28;;;6.32;76.91
39773;BME280;25451;51.960;6.250;2023-02-01T07:12:30;101629.88;;;6.30;76.57
39773;BME280;25451;51.960;6.250;2023-02-01T07:14:55;101633.28;;;6.32;76.51
39773;BME280;25451;51.960;6.250;2023-02-01T07:17:21;101631.41;;;6.33;76.87
39773;BME280;25451;51.960;6.250;2023-02-01T07:19:47;101641.75;;;6.37;76.41
39773;BME280;25451;51.960;6.250;2023-02-01T07:22:12;101651.47;;;6.40;76.46
39773;BME280;25451;51.960;6.250;2023-02-01T07:24:37;101633.94;;;6.34;76.67
39773;BME280;25451;51.960;6.250;2023-02-01T07:27:03;101639.28;;;6.42;76.52
39773;BME280;25451;51.960;6.250;2023-02-01T07:29:28;101642.00;;;6.42;76.27
39773;BME280;25451;51.960;6.250;2023-02-01T07:31:53;101640.94;;;6.43;76.80
39773;BME280;25451;51.960;6.250;2023-02-01T07:34:19;101647.28;;;6.44;76.65
39773;BME280;25451;51.960;6.250;2023-02-01T07:36:44;101657.22;;;6.45;76.39
39773;BME280;25451;51.960;6.250;2023-02-01T07:39:09;101645.41;;;6.44;76.31
39773;BME280;25451;51.960;6.250;2023-02-01T07:41:35;101642.66;;;6.44;76.35
39773;BME280;25451;51.960;6.250;2023-02-01T07:44:00;101641.44;;;6.47;76.16
39773;BME280;25451;51.960;6.250;2023-02-01T07:46:26;101647.34;;;6.50;76.51
39773;BME280;25451;51.960;6.250;2023-02-01T07:48:51;101641.22;;;6.48;76.38
39773;BME280;25451;51.960;6.250;2023-02-01T07:51:17;101653.50;;;6.52;76.14
39773;BME280;25451;51.960;6.250;2023-02-01T07:53:43;101640.56;;;6.46;76.60
39773;BME280;25451;51.960;6.250;2023-02-01T07:56:16;101659.63;;;6.54;76.58
39773;BME280;25451;51.960;6.250;2023-02-01T07:58:42;101653.69;;;6.51;75.95
39773;BME280;25451;51.960;6.250;2023-02-01T08:01:19;101654.13;;;6.54;76.34
39773;BME280;25451;51.960;6.250;2023-02-01T08:03:44;101653.25;;;6.47;76.48
39773;BME280;25451;51.960;6.250;2023-02-01T08:06:10;101663.88;;;6.57;76.08
39773;BME280;25451;51.960;6.250;2023-02-01T08:08:35;101653.28;;;6.54;76.61
39773;BME280;25451;51.960;6.250;2023-02-01T08:11:02;101668.78;;;6.61;76.30
39773;BME280;25451;51.960;6.250;2023-02-01T08:13:28;101660.28;;;6.56;76.44
39773;BME280;25451;51.960;6.250;2023-02-01T08:16:00;101655.19;;;6.53;76.68
39773;BME280;25451;51.960;6.250;2023-02-01T08:18:26;101676.59;;;6.64;76.12
39773;BME280;25451;51.960;6.250;2023-02-01T08:20:52;101664.75;;;6.64;76.54
39773;BME280;25451;51.960;6.250;2023-02-01T08:23:17;101673.63;;;6.66;76.09
39773;BME280;25451;51.960;6.250;2023-02-01T08:25:43;101681.22;;;6.64;76.68
39773;BME280;25451;51.960;6.250;2023-02-01T08:28:09;101686.75;;;6.70;76.57
39773;BME280;25451;51.960;6.250;2023-02-01T08:30:37;101684.59;;;6.66;76.32
39773;BME280;25451;51.960;6.250;2023-02-01T08:33:03;101686.75;;;6.70;76.31
39773;BME280;25451;51.960;6.250;2023-02-01T08:35:28;101690.81;;;6.75;76.21
39773;BME280;25451;51.960;6.250;2023-02-01T08:37:54;101676.06;;;6.76;76.43
39773;BME280;25451;51.960;6.250;2023-02-01T08:40:19;101663.72;;;6.65;76.44
39773;BME280;25451;51.960;6.250;2023-02-01T08:42:46;101685.97;;;6.77;76.21
39773;BME280;25451;51.960;6.250;2023-02-01T08:45:20;101665.09;;;6.76;76.42
39773;BME280;25451;51.960;6.250;2023-02-01T08:47:46;101664.03;;;6.77;76.21
39773;BME280;25451;51.960;6.250;2023-02-01T08:50:14;101660.25;;;6.84;76.34
39773;BME280;25451;51.960;6.250;2023-02-01T08:52:40;101658.63;;;6.90;76.18
39773;BME280;25451;51.960;6.250;2023-02-01T08:55:06;101645.31;;;6.87;76.12
39773;BME280;25451;51.960;6.250;2023-02-01T08:57:32;101648.53;;;6.97;76.13
39773;BME280;25451;51.960;6.250;2023-02-01T08:59:58;101646.44;;;6.99;76.11
39773;BME280;25451;51.960;6.250;2023-02-01T09:02:24;101642.06;;;7.04;75.96
39773;BME280;25451;51.960;6.250;2023-02-01T09:04:49;101635.72;;;7.04;75.98
39773;BME280;25451;51.960;6.250;2023-02-01T09:07:14;101651.59;;;7.15;75.91
39773;BME280;25451;51.960;6.250;2023-02-01T09:09:41;101637.88;;;7.15;75.98
39773;BME280;25451;51.960;6.250;2023-02-01T09:12:07;101625.00;;;7.15;76.03
39773;BME280;25451;51.960;6.250;2023-02-01T09:14:33;101633.50;;;7.27;76.02
39773;BME280;25451;51.960;6.250;2023-02-01T09:16:58;101633.50;;;7.27;76.04
39773;BME280;25451;51.960;6.250;2023-02-01T09:19:23;101635.47;;;7.33;75.92
39773;BME280;25451;51.960;6.250;2023-02-01T09:21:49;101634.66;;;7.39;75.92
39773;BME280;25451;51.960;6.250;2023-02-01T09:24:14;101632.34;;;7.42;75.61
39773;BME280;25451;51.960;6.250;2023-02-01T09:26:39;101626.63;;;7.44;75.83
39773;BME280;25451;51.960;6.250;2023-02-01T09:29:05;101632.38;;;7.49;75.32
39773;BME280;25451;51.960;6.250;2023-02-01T09:31:37;101617.19;;;7.53;75.80
39773;BME280;25451;51.960;6.250;2023-02-01T09:34:03;101619.28;;;7.57;75.93
39773;BME280;25451;51.960;6.250;2023-02-01T09:36:29;101617.19;;;7.60;75.57
39773;BME280;25451;51.960;6.250;2023-02-01T09:38:55;101625.66;;;7.65;75.80
39773;BME280;25451;51.960;6.250;2023-02-01T09:46:59;101606.66;;;7.63;75.40
39773;BME280;25451;51.960;6.250;2023-02-01T09:49:30;101610.44;;;7.62;75.59
39773;BME280;25451;51.960;6.250;2023-02-01T09:51:58;101637.09;;;7.75;75.58
39773;BME280;25451;51.960;6.250;2023-02-01T09:54:27;101642.22;;;7.78;75.67
39773;BME280;25451;51.960;6.250;2023-02-01T09:57:06;101633.09;;;7.77;76.26
39773;BME280;25451;51.960;6.250;2023-02-01T09:59:40;101637.78;;;7.83;75.50
39773;BME280;25451;51.960;6.250;2023-02-01T10:02:17;101644.75;;;7.86;75.81
39773;BME280;25451;51.960;6.250;2023-02-01T10:04:43;101618.53;;;7.83;75.38
39773;BME280;25451;51.960;6.250;2023-02-01T10:10:10;101637.16;;;7.94;75.46
39773;BME280;25451;51.960;6.250;2023-02-01T10:13:15;101615.16;;;7.94;75.36
39773;BME280;25451;51.960;6.250;2023-02-01T10:16:00;101625.75;;;7.97;75.68
39773;BME280;25451;51.960;6.250;2023-02-01T10:19:00;101631.03;;;7.99;75.84
39773;BME280;25451;51.960;6.250;2023-02-01T10:26:59;101612.22;;;8.02;75.56
39773;BME280;25451;51.960;6.250;2023-02-01T10:29:32;101618.16;;;8.06;75.49
39773;BME280;25451;51.960;6.250;2023-02-01T10:31:59;101620.69;;;8.07;75.81
39773;BME280;25451;51.960;6.250;2023-02-01T10:34:31;101625.13;;;8.08;75.44
39773;BME280;25451;51.960;6.250;2023-02-01T10:37:01;101629.59;;;8.09;75.23
39773;BME280;25451;51.960;6.250;2023-02-01T10:39:27;101613.94;;;8.10;75.32
39773;BME280;25451;51.960;6.250;2023-02-01T10:41:54;101611.81;;;8.05;75.84
39773;BME280;25451;51.960;6.250;2023-02-01T10:44:24;101613.72;;;8.11;75.61
39773;BME280;25451;51.960;6.250;2023-02-01T10:46:51;101609.91;;;8.12;75.14
39773;BME280;25451;51.960;6.250;2023-02-01T10:49:39;101603.16;;;8.15;75.48
39773;BME280;25451;51.960;6.250;2023-02-01T10:52:15;101591.50;;;8.13;75.64
39773;BME280;25451;51.960;6.250;2023-02-01T10:54:42;101590.66;;;8.12;75.46
39773;BME280;25451;51.960;6.250;2023-02-01T10:57:27;101604.00;;;8.15;75.48
39773;BME280;25451;51.960;6.250;2023-02-01T10:59:55;101597.63;;;8.08;75.34
39773;BME280;25451;51.960;6.250;2023-02-01T11:02:32;101602.72;;;8.11;75.47
39773;BME280;25451;51.960;6.250;2023-02-01T11:05:03;101606.34;;;8.12;75.52
39773;BME280;25451;51.960;6.250;2023-02-01T11:07:31;101598.25;;;8.10;75.73
39773;BME280;25451;51.960;6.250;2023-02-01T11:09:57;101604.63;;;8.11;75.73
39773;BME280;25451;51.960;6.250;2023-02-01T11:12:33;101595.34;;;8.12;75.89
39773;BME280;25451;51.960;6.250;2023-02-01T11:17:40;101597.22;;;8.05;75.87
39773;BME280;25451;51.960;6.250;2023-02-01T11:22:57;101584.53;;;8.04;76.05
39773;BME280;25451;51.960;6.250;2023-02-01T11:25:23;101579.44;;;8.01;76.36
39773;BME280;25451;51.960;6.250;2023-02-01T11:27:50;101577.56;;;8.01;76.03
39773;BME280;25451;51.960;6.250;2023-02-01T11:30:18;101570.34;;;8.00;75.98
39773;BME280;25451;51.960;6.250;2023-02-01T11:32:48;101570.34;;;8.00;76.15
39773;BME280;25451;51.960;6.250;2023-02-01T11:35:18;101544.97;;;7.92;76.58
39773;BME280;25451;51.960;6.250;2023-02-01T11:37:50;101568.66;;;7.99;76.23
39773;BME280;25451;51.960;6.250;2023-02-01T11:42:59;101549.81;;;7.96;76.42
39773;BME280;25451;51.960;6.250;2023-02-01T11:45:32;101547.28;;;7.95;76.70
39773;BME280;25451;51.960;6.250;2023-02-01T11:48:08;101539.91;;;7.95;76.80
39773;BME280;25451;51.960;6.250;2023-02-01T11:50:49;101547.50;;;7.93;76.74
39773;BME280;25451;51.960;6.250;2023-02-01T11:58:54;101525.53;;;7.93;76.84
39773;BME280;25451;51.960;6.250;2023-02-01T12:04:24;101529.31;;;7.92;76.34
39773;BME280;25451;51.960;6.250;2023-02-01T12:07:04;101537.34;;;7.87;76.95
39773;BME280;25451;51.960;6.250;2023-02-01T12:16:02;101533.53;;;7.88;77.20
39773;BME280;25451;51.960;6.250;2023-02-01T12:21:31;101533.13;;;7.91;77.13
39773;BME280;25451;51.960;6.250;2023-02-01T12:24:07;101525.94;;;7.90;76.88
39773;BME280;25451;51.960;6.250;2023-02-01T12:32:20;101530.78;;;7.88;76.56
39773;BME280;25451;51.960;6.250;2023-02-01T12:35:21;101537.34;;;8.00;76.48
39773;BME280;25451;51.960;6.250;2023-02-01T12:43:21;101510.31;;;7.97;76.64
39773;BME280;25451;51.960;6.250;2023-02-01T12:45:59;101521.72;;;8.07;76.76
39773;BME280;25451;51.960;6.250;2023-02-01T12:48:51;101536.72;;;8.11;76.54
39773;BME280;25451;51.960;6.250;2023-02-01T12:51:24;101533.13;;;8.04;76.37
39773;BME280;25451;51.960;6.250;2023-02-01T12:56:41;101527.84;;;8.09;77.04
39773;BME280;25451;51.960;6.250;2023-02-01T12:59:36;101532.09;;;8.18;76.36
39773;BME280;25451;51.960;6.250;2023-02-01T13:02:18;101520.03;;;8.19;76.66
39773;BME280;25451;51.960;6.250;2023-02-01T13:05:01;101525.75;;;8.18;76.74
39773;BME280;25451;51.960;6.250;2023-02-01T13:07:38;101531.44;;;8.23;76.75
39773;BME280;25451;51.960;6.250;2023-02-01T13:10:20;101521.28;;;8.23;76.58
39773;BME280;25451;51.960;6.250;2023-02-01T13:12:54;101507.34;;;8.25;76.97
39773;BME280;25451;51.960;6.250;2023-02-01T13:15:26;101522.38;;;8.29;76.45
39773;BME280;25451;51.960;6.250;2023-02-01T13:17:55;101514.75;;;8.24;76.64
39773;BME280;25451;51.960;6.250;2023-02-01T13:20:49;101528.31;;;8.32;76.32
39773;BME280;25451;51.960;6.250;2023-02-01T13:23:24;101526.38;;;8.33;76.51
39773;BME280;25451;51.960;6.250;2023-02-01T13:25:52;101529.13;;;8.33;76.92
39773;BME280;25451;51.960;6.250;2023-02-01T13:28:34;101524.50;;;8.33;76.42
39773;BME280;25451;51.960;6.250;2023-02-01T13:34:29;101521.75;;;8.33;76.93
39773;BME280;25451;51.960;6.250;2023-02-01T13:37:16;101498.47;;;8.16;76.65
39773;BME280;25451;51.960;6.250;2023-02-01T13:42:47;101525.56;;;8.32;76.32
39773;BME280;25451;51.960;6.250;2023-02-01T13:45:17;101516.69;;;8.30;76.58
39773;BME280;25451;51.960;6.250;2023-02-01T13:47:46;101515.41;;;8.26;76.58
39773;BME280;25451;51.960;6.250;2023-02-01T13:52:44;101533.19;;;8.30;76.65
39773;BME280;25451;51.960;6.250;2023-02-01T13:55:15;101536.13;;;8.35;76.54
39773;BME280;25451;51.960;6.250;2023-02-01T13:57:42;101526.41;;;8.26;76.50
39773;BME280;25451;51.960;6.250;2023-02-01T14:00:32;101540.78;;;8.35;76.42
39773;BME280;25451;51.960;6.250;2023-02-01T14:23:56;101547.75;;;8.24;76.50
39773;BME280;25451;51.960;6.250;2023-02-01T14:31:41;101579.72;;;8.39;76.88
39773;BME280;25451;51.960;6.250;2023-02-01T14:34:20;101559.84;;;8.37;76.65
39773;BME280;25451;51.960;6.250;2023-02-01T14:37:02;101552.22;;;8.39;76.91
39773;BME280;25451;51.960;6.250;2023-02-01T14:39:47;101559.41;;;8.40;76.26
39773;BME280;25451;51.960;6.250;2023-02-01T14:44:56;101563.00;;;8.40;76.50
39773;BME280;25451;51.960;6.250;2023-02-01T14:47:40;101553.91;;;8.40;76.39
39773;BME280;25451;51.960;6.250;2023-02-01T14:58:40;101553.03;;;8.39;76.38
39773;BME280;25451;51.960;6.250;2023-02-01T15:01:20;101563.00;;;8.40;76.79
39773;BME280;25451;51.960;6.250;2023-02-01T15:08:48;101550.09;;;8.41;76.43
39773;BME280;25451;51.960;6.250;2023-02-01T15:11:15;101559.41;;;8.40;76.02
39773;BME280;25451;51.960;6.250;2023-02-01T15:13:48;101545.88;;;8.38;76.06
39773;BME280;25451;51.960;6.250;2023-02-01T15:16:15;101566.78;;;8.39;76.38
39773;BME280;25451;51.960;6.250;2023-02-01T15:18:41;101549.25;;;8.33;76.28
39773;BME280;25451;51.960;6.250;2023-02-01T15:21:17;101548.19;;;8.34;75.97
39773;BME280;25451;51.960;6.250;2023-02-01T15:23:43;101563.22;;;8.39;76.59
39773;BME280;25451;51.960;6.250;2023-02-01T15:26:10;101542.47;;;8.29;76.39
39773;BME280;25451;51.960;6.250;2023-02-01T15:28:36;101541.63;;;8.29;76.41
39773;BME280;25451;51.960;6.250;2023-02-01T15:31:04;101566.59;;;8.41;76.16
39773;BME280;25451;51.960;6.250;2023-02-01T15:33:31;101574.00;;;8.40;76.02